createdAt,value
2022-09-04T00:04:35.715Z,71.24
2022-09-04T00:10:06.843Z,71.62
2022-09-04T00:15:23.037Z,71.87
2022-09-04T00:20:38.984Z,72.22
2022-09-04T00:25:48.310Z,72.43
2022-09-04T00:31:04.500Z,72.40
2022-09-04T00:36:07.616Z,72.64
2022-09-04T00:41:24.296Z,73.62
2022-09-04T00:46:52.017Z,73.25
2022-09-04T00:52:16.736Z,73.36
2022-09-04T00:57:39.961Z,73.32
2022-09-04T01:03:13.576Z,73.47
2022-09-04T01:09:01.263Z,73.43
2022-09-04T01:14:21.524Z,73.50
2022-09-04T01:19:23.486Z,73.83
2022-09-04T01:24:47.193Z,74.13
2022-09-04T01:30:12.831Z,74.57
2022-09-04T01:35:26.080Z,74.24
2022-09-04T01:41:03.164Z,74.92
2022-09-04T01:46:33.687Z,74.82
2022-09-04T01:51:53.707Z,77.85
2022-09-04T01:57:14.317Z,78.70
2022-09-04T02:02:37.955Z,77.46
2022-09-04T02:07:47.456Z,76.87
2022-09-04T02:13:18.381Z,76.61
2022-09-04T02:18:32.932Z,76.81
2022-09-04T02:23:45.375Z,76.72
2022-09-04T02:29:17.905Z,77.14
2022-09-04T02:34:38.481Z,77.44
2022-09-04T02:40:01.750Z,77.43
2022-09-04T02:45:18.693Z,77.45
2022-09-04T02:50:53.428Z,77.73
2022-09-04T02:56:21.041Z,78.08
2022-09-04T03:01:35.404Z,79.61
2022-09-04T03:06:49.146Z,79.99
2022-09-04T03:11:55.574Z,79.78
2022-09-04T03:17:23.370Z,79.33
2022-09-04T03:22:37.816Z,79.45
2022-09-04T03:27:39.529Z,79.79
2022-09-04T03:32:54.976Z,79.64
2022-09-04T03:38:14.796Z,79.79
2022-09-04T03:43:25.031Z,80.07
2022-09-04T03:48:41.862Z,80.75
2022-09-04T03:54:00.017Z,81.13
2022-09-04T03:59:05.756Z,81.16
2022-09-04T04:04:35.249Z,81.33
2022-09-04T04:09:57.443Z,80.77
2022-09-04T04:15:05.822Z,81.37
2022-09-04T04:20:18.470Z,81.40
2022-09-04T04:25:52.415Z,81.13
2022-09-04T04:31:05.523Z,81.25
2022-09-04T04:36:19.174Z,81.95
2022-09-04T04:41:24.177Z,82.15
2022-09-04T04:46:54.271Z,81.82
2022-09-04T04:52:06.207Z,82.17
2022-09-04T04:57:20.916Z,81.90
2022-09-04T05:02:36.577Z,81.68
2022-09-04T05:07:42.092Z,81.80
2022-09-04T05:13:04.054Z,82.34
2022-09-04T05:18:25.946Z,82.34
2022-09-04T05:23:47.116Z,82.56
2022-09-04T05:28:48.661Z,82.09
2022-09-04T05:34:07.745Z,82.25
2022-09-04T05:39:55.044Z,82.85
2022-09-04T05:45:06.610Z,83.41
2022-09-04T05:50:27.901Z,83.81
2022-09-04T05:55:44.430Z,83.94
2022-09-04T06:01:20.569Z,84.50
2022-09-04T06:06:48.140Z,84.14
2022-09-04T06:12:25.802Z,84.18
2022-09-04T06:18:05.942Z,85.23
2022-09-04T06:23:07.447Z,86.13
2022-09-04T06:28:26.228Z,85.90
2022-09-04T06:33:41.720Z,87.46
2022-09-04T06:39:07.917Z,89.38
2022-09-04T06:44:26.729Z,90.35
2022-09-04T06:50:06.870Z,91.74
2022-09-04T06:55:23.827Z,92.13
2022-09-04T07:00:29.556Z,90.64
2022-09-04T07:05:52.621Z,91.23
2022-09-04T07:11:31.879Z,92.22
2022-09-04T07:16:59.689Z,92.99
2022-09-04T07:22:35.652Z,93.47
2022-09-04T07:28:05.480Z,94.64
2022-09-04T07:33:12.600Z,95.74
2022-09-04T07:38:40.489Z,95.16
2022-09-04T07:43:55.392Z,95.29
2022-09-04T07:49:05.996Z,95.30
2022-09-04T07:54:29.706Z,95.29
2022-09-04T07:59:50.221Z,94.69
2022-09-04T08:05:10.113Z,94.40
2022-09-04T08:10:33.396Z,94.34
2022-09-04T08:15:43.409Z,94.52
2022-09-04T08:20:55.257Z,94.05
2022-09-04T08:26:20.011Z,93.61
2022-09-04T08:31:30.749Z,93.94
2022-09-04T08:37:01.478Z,91.72
2022-09-04T08:42:22.093Z,89.61
2022-09-04T08:47:52.861Z,89.25
2022-09-04T08:53:03.847Z,88.23
2022-09-04T08:58:35.857Z,88.80
2022-09-04T09:04:00.078Z,88.78
2022-09-04T09:09:31.773Z,87.38
2022-09-04T09:14:57.700Z,86.49
2022-09-04T09:20:14.847Z,87.95
2022-09-04T09:25:24.265Z,86.33
2022-09-04T09:30:46.843Z,85.69
2022-09-04T09:36:04.742Z,84.73
2022-09-04T09:41:37.450Z,83.19
2022-09-04T09:46:45.512Z,83.19
2022-09-04T09:52:09.202Z,83.48
2022-09-04T09:57:33.657Z,82.18
2022-09-04T10:03:00.129Z,81.42
2022-09-04T10:08:39.372Z,81.63
2022-09-04T10:14:10.881Z,81.69
2022-09-04T10:19:18.840Z,82.56
2022-09-04T10:24:42.233Z,80.05
2022-09-04T10:30:19.233Z,79.68
2022-09-04T10:35:22.128Z,81.23
2022-09-04T10:40:39.611Z,80.61
2022-09-04T10:46:23.672Z,79.89
2022-09-04T10:51:56.561Z,79.63
2022-09-04T10:57:35.124Z,79.13
2022-09-04T11:03:15.046Z,79.09
2022-09-04T11:08:28.824Z,78.25
2022-09-04T11:14:20.685Z,78.34
2022-09-04T11:20:00.593Z,78.66
2022-09-04T11:25:04.287Z,78.77
2022-09-04T11:30:22.483Z,78.69
2022-09-04T11:35:55.648Z,77.61
2022-09-04T11:41:21.650Z,77.62
2022-09-04T11:46:47.838Z,77.83
2022-09-04T11:52:05.676Z,76.94
2022-09-04T11:57:21.861Z,76.01
2022-09-04T12:02:38.763Z,76.79
2022-09-04T12:07:51.097Z,76.04
2022-09-04T12:13:15.749Z,76.31
2022-09-04T12:18:41.825Z,76.35
2022-09-04T12:24:18.237Z,75.67
2022-09-04T12:29:38.985Z,75.27
2022-09-04T12:34:43.852Z,75.79
2022-09-04T12:40:00.522Z,74.92
2022-09-04T12:45:24.513Z,74.29
2022-09-04T12:50:50.477Z,72.09
2022-09-04T12:56:05.797Z,72.63
2022-09-04T13:01:10.570Z,73.48
2022-09-04T13:06:53.485Z,73.82
2022-09-04T13:12:39.595Z,74.03
2022-09-04T13:17:53.136Z,74.92
2022-09-04T13:23:27.703Z,74.77
2022-09-04T13:28:46.059Z,74.83
2022-09-04T13:34:20.515Z,74.33
2022-09-04T13:39:46.375Z,73.72
2022-09-04T13:44:59.892Z,72.43
2022-09-04T13:50:17.902Z,73.81
2022-09-04T13:55:24.551Z,73.26
2022-09-04T14:00:28.833Z,72.29
2022-09-04T14:05:33.517Z,70.97
2022-09-04T14:10:56.831Z,72.61
2022-09-04T14:16:04.610Z,72.69
2022-09-04T14:21:13.932Z,72.05
2022-09-04T14:26:21.514Z,71.44
2022-09-04T14:31:40.395Z,72.17
2022-09-04T14:37:24.604Z,71.93
2022-09-04T14:42:42.203Z,71.85
2022-09-04T14:48:03.739Z,71.37
2022-09-04T14:53:08.466Z,71.07
2022-09-04T14:58:19.809Z,71.65
2022-09-04T15:03:28.854Z,72.21
2022-09-04T15:08:39.859Z,71.17
2022-09-04T15:13:54.022Z,70.70
2022-09-04T15:19:26.506Z,69.88
2022-09-04T15:24:35.041Z,70.28
2022-09-04T15:29:53.356Z,70.57
2022-09-04T15:35:20.004Z,69.92
2022-09-04T15:40:31.010Z,70.09
2022-09-04T15:45:40.818Z,70.26
2022-09-04T15:50:57.631Z,70.16
2022-09-04T15:56:23.824Z,70.20
2022-09-04T16:01:30.730Z,70.56
2022-09-04T16:06:57.769Z,70.98
2022-09-04T16:12:11.651Z,71.20
2022-09-04T16:17:20.696Z,72.00
2022-09-04T16:22:26.119Z,73.26
2022-09-04T16:27:29.280Z,73.60
2022-09-04T16:32:35.166Z,73.48
2022-09-04T16:37:38.948Z,73.91
2022-09-04T16:42:46.627Z,73.79
2022-09-04T16:48:15.785Z,74.17
2022-09-04T16:53:43.724Z,74.13
2022-09-04T16:59:00.131Z,74.41
2022-09-04T17:04:20.772Z,74.85
2022-09-04T17:10:04.218Z,75.27
2022-09-04T17:15:44.504Z,75.40
2022-09-04T17:26:26.743Z,75.62
2022-09-04T17:29:13.391Z,75.37
2022-09-04T17:36:23.604Z,75.59
2022-09-04T17:40:56.732Z,75.51
2022-09-04T17:45:01.483Z,75.20
2022-09-04T17:50:08.443Z,76.27
2022-09-04T17:55:13.538Z,76.06
2022-09-04T18:00:25.109Z,76.12
2022-09-04T18:05:51.672Z,76.96
2022-09-04T18:11:08.859Z,76.49
2022-09-04T18:16:47.689Z,77.32
2022-09-04T18:22:32.027Z,77.24
2022-09-04T18:27:45.471Z,77.15
2022-09-04T18:37:08.476Z,77.15
2022-09-04T18:39:08.467Z,78.10
2022-09-04T18:50:28.503Z,77.61
2022-09-04T18:50:32.005Z,77.75
2022-09-04T18:55:13.530Z,77.81
2022-09-04T19:00:25.913Z,77.85
2022-09-04T19:05:44.323Z,77.81
2022-09-04T19:10:52.525Z,77.89
2022-09-04T19:16:03.749Z,77.87
2022-09-04T19:21:14.519Z,78.30
2022-09-04T19:26:44.625Z,78.72
2022-09-04T19:32:08.338Z,78.92
2022-09-04T19:38:25.756Z,78.87
2022-09-04T19:46:14.249Z,79.05
2022-09-04T19:48:33.439Z,79.35
2022-09-04T19:53:49.459Z,78.86
2022-09-04T19:59:05.205Z,79.83
2022-09-04T20:04:25.092Z,79.61
2022-09-04T20:09:41.760Z,80.21
2022-09-04T20:15:02.728Z,79.75
2022-09-04T20:20:19.047Z,80.35
2022-09-04T20:25:24.479Z,81.41
2022-09-04T20:30:27.477Z,81.69
2022-09-04T20:35:41.054Z,80.99
2022-09-04T20:40:46.738Z,81.41
2022-09-04T20:48:45.658Z,81.27
2022-09-04T20:53:04.753Z,81.28
2022-09-04T21:03:11.375Z,81.57
2022-09-04T21:03:21.360Z,82.26
2022-09-04T21:08:35.250Z,82.10
2022-09-04T21:13:52.557Z,82.21
2022-09-04T21:19:28.748Z,82.86
2022-09-04T21:25:10.253Z,82.54
2022-09-04T21:30:15.223Z,82.10
2022-09-04T21:35:35.021Z,82.74
2022-09-04T21:40:51.236Z,83.06
2022-09-04T21:46:12.855Z,82.95
2022-09-04T21:51:43.133Z,83.07
2022-09-04T22:02:30.593Z,83.27
2022-09-04T22:02:57.812Z,83.21
2022-09-04T22:13:26.163Z,83.14
2022-09-04T22:14:10.541Z,82.98
2022-09-04T22:19:31.413Z,83.78
2022-09-04T22:24:57.182Z,83.89
2022-09-04T22:30:05.140Z,84.21
2022-09-04T22:35:34.203Z,83.87
2022-09-04T22:40:56.556Z,83.94
2022-09-04T22:46:32.030Z,84.09
2022-09-04T22:52:00.823Z,84.42
2022-09-04T22:57:08.204Z,84.92
2022-09-04T23:02:34.538Z,84.84
2022-09-04T23:13:47.051Z,84.83
2022-09-04T23:14:25.835Z,85.07
2022-09-04T23:26:30.891Z,84.94
2022-09-04T23:26:42.689Z,85.26
2022-09-04T23:31:29.755Z,85.13
2022-09-04T23:37:19.860Z,84.84
2022-09-04T23:42:51.876Z,85.06
2022-09-04T23:48:21.412Z,85.12
2022-09-04T23:53:42.045Z,84.76
2022-09-04T23:59:18.954Z,86.65
